Four Seasons, Missouri
Current Conditions -  °F | °C
As of 2:15 PM on Monday 24 Nov 2014 (Local Time) from KAIZ Reporting Station
Overcast Overcast  
Wind Chill: 39°   Ceiling: 4400
Heat Index: 45°   Visibility: 10mi
Dew Point: 27°   Wind: 12mph
Humidity: 49%   Direction: 290°WNW
Pressure: 29.79"   Gusts: 17mph
Location:  38.2106°N, 92.6582°W
Report Text: KAIZ 242015Z AUTO 29010G15KT 10SM BKN044 OVC050 07/M03 A2979 RMK AO1
Loading
Personal Weather Stations






























Interactive Weather Map New forecast layout! Learn more

10-Day Weather Forecast

Advertisements
Track Severe Weather on mobile